Kapisillit

KL  EN  DA
ASIAQ
Weather Now GREENLAND SURVEY
Updated [WGT/WGST] Temperature [°C] Wind [m/s] Air pressure [hPa] Relative humidity [%] Precipitation [mm]
Present Wind chill Speed Max
18.04 01:00-14,5-20,42,6 ⇙4,61011630,0
18.04 00:00-14,9-21,33,0 ⇐4,81011540,0
17.04 23:00-13,3-21,04,5 ⇐5,91011480,0
17.04 22:00-13,5-19,62,9 ⇐6,31010510,0
17.04 21:00-12,3-18,43,2 ⇐4,81010470,0
17.04 20:00-12,4-19,23,8 ⇐4,81010450,0
17.04 19:00-12,1-18,73,6 ⇐4,51009470,0
17.04 18:00-11,6-16,92,6 ⇐4,01009490,0
17.04 17:00-11,4-18,33,9 ⇐5,41009480,0
17.04 16:00-11,7-18,13,5 ⇐4,81008500,0
17.04 15:00-11,9-17,72,9 ⇐4,41008480,0
17.04 14:00-12,1-18,83,6 ⇙5,41008480,0
17.04 13:00-12,5-19,64,0 ⇙6,51007510,0
17.04 12:00-12,3-18,02,7 ⇙6,51007480,3
17.04 11:00-12,5-18,32,9 ⇐5,31007470,0
17.04 10:00-12,2-16,51,9 ⇐7,51007460,0
17.04 09:00-13,6-23,36,8 ⇖9,01006470,0
17.04 08:00-13,1-20,84,5 ⇖6,31006490,0
17.04 07:00-13,2-21,65,2 ⇐8,11005510,0
17.04 06:00-13,3-19,73,2 ⇐5,81004530,0
17.04 05:00-12,8-18,22,5 ⇐6,11004540,0
17.04 04:00-12,9-19,93,8 ⇐7,01004590,0
17.04 03:00-14,6-21,13,0 ⇐6,11003670,0
17.04 02:00-14,3-22,24,4 ⇐6,61003670,0
17.04 01:00-12,5-20,14,5 ⇖5,91002620,0
Position: (64.4325,-50.27175)

[Back]